Time;durP1;ratioP1;P1;durP2;ratioP2;P2;SDS_P1;SDS_P2;PMS_P1;PMS_P2;Temp;Humidity;BMP_temperature;BMP_pressure;BME280_temperature;BME280_humidity;BME280_pressure;Samples;Min_cycle;Max_cycle;Signal;HPM_P1;HPM_P2
2022/04/04 00:01:11;;;;;;;3.10;2.22;;;4.70;73.60;;;;;;5056042;28;20048;-31
2022/04/04 00:03:36;;;;;;;3.05;2.17;;;4.70;73.80;;;;;;5055985;28;20033;-31
2022/04/04 00:06:02;;;;;;;3.85;2.55;;;4.60;73.90;;;;;;5056249;28;20024;-30
2022/04/04 00:08:27;;;;;;;4.00;2.42;;;4.70;74.00;;;;;;5055989;28;20032;-29
2022/04/04 00:10:53;;;;;;;2.22;2.00;;;4.60;74.00;;;;;;5056236;28;20043;-30
2022/04/04 00:13:19;;;;;;;3.28;2.28;;;4.60;74.00;;;;;;5054570;28;20094;-30
2022/04/04 00:15:45;;;;;;;2.72;2.40;;;4.60;74.00;;;;;;5056115;28;20032;-29
2022/04/04 00:18:11;;;;;;;3.30;2.20;;;4.60;74.00;;;;;;5055923;28;20051;-30
2022/04/04 00:20:41;;;;;;;2.78;2.47;;;4.60;74.10;;;;;;5054542;28;20028;-32
2022/04/04 00:23:13;;;;;;;3.85;2.42;;;4.60;74.20;;;;;;5055677;28;20052;-29
2022/04/04 00:25:44;;;;;;;3.78;2.67;;;4.60;74.20;;;;;;5055598;28;20073;-28
2022/04/04 00:28:10;;;;;;;4.03;2.50;;;4.50;74.30;;;;;;5055851;28;20083;-29
2022/04/04 00:30:36;;;;;;;3.38;2.40;;;4.50;74.40;;;;;;5055487;28;20079;-28
2022/04/04 00:33:02;;;;;;;3.42;2.30;;;4.50;74.40;;;;;;5055511;28;20079;-28
2022/04/04 00:35:28;;;;;;;2.90;2.20;;;4.50;74.50;;;;;;5055508;28;20017;-27
2022/04/04 00:37:54;;;;;;;2.25;1.83;;;4.50;74.50;;;;;;5055604;28;20024;-27
2022/04/04 00:40:20;;;;;;;4.38;2.40;;;4.50;74.50;;;;;;5055317;28;20028;-28
2022/04/04 00:42:45;;;;;;;3.92;2.55;;;4.50;74.50;;;;;;5055344;28;20032;-28
2022/04/04 00:45:11;;;;;;;2.97;2.20;;;4.40;74.50;;;;;;5055221;28;20078;-32
2022/04/04 00:47:36;;;;;;;3.53;1.98;;;4.40;74.70;;;;;;5055248;28;20024;-27
2022/04/04 00:50:04;;;;;;;3.50;2.50;;;4.40;74.70;;;;;;5054247;28;20029;-28
2022/04/04 00:52:29;;;;;;;2.92;2.40;;;4.40;74.80;;;;;;5055143;28;20025;-28
2022/04/04 00:54:55;;;;;;;6.30;2.92;;;4.40;74.70;;;;;;5053790;28;20052;-27
2022/04/04 00:57:21;;;;;;;3.47;2.35;;;4.30;74.80;;;;;;5055068;28;20025;-28
2022/04/04 00:59:47;;;;;;;4.90;2.78;;;4.30;74.80;;;;;;5054913;28;20098;-29
2022/04/04 01:02:13;;;;;;;3.72;2.58;;;4.30;74.90;;;;;;5054995;28;20547;-27
2022/04/04 01:04:39;;;;;;;4.70;3.20;;;4.30;74.90;;;;;;5055011;28;20021;-28
2022/04/04 01:07:04;;;;;;;3.65;2.90;;;4.30;75.00;;;;;;5053580;28;20043;-28
2022/04/04 01:09:33;;;;;;;3.90;3.15;;;4.30;75.00;;;;;;5054978;28;20040;-28
2022/04/04 01:12:08;;;;;;;5.65;3.30;;;4.20;75.10;;;;;;5054694;28;20025;-29
2022/04/04 01:14:46;;;;;;;4.75;3.40;;;4.30;75.20;;;;;;5054773;28;20033;-28
2022/04/04 01:17:12;;;;;;;4.70;2.95;;;4.30;75.20;;;;;;5055019;28;20039;-27
2022/04/04 01:19:38;;;;;;;4.65;3.20;;;4.20;75.20;;;;;;5054624;28;20024;-29
2022/04/04 01:22:08;;;;;;;5.38;3.22;;;4.20;75.20;;;;;;5054544;28;20021;-28
2022/04/04 01:24:34;;;;;;;6.88;4.35;;;4.20;75.20;;;;;;5054457;28;20032;-27
2022/04/04 01:27:00;;;;;;;5.97;3.33;;;4.20;75.30;;;;;;5054551;28;20032;-27
2022/04/04 01:29:26;;;;;;;4.03;3.33;;;4.20;75.40;;;;;;5054503;28;20389;-31
2022/04/04 01:31:52;;;;;;;4.03;3.22;;;4.20;75.40;;;;;;5054321;28;20018;-30
2022/04/04 01:34:22;;;;;;;5.53;3.58;;;4.20;75.40;;;;;;5053098;28;20555;-31
2022/04/04 01:36:51;;;;;;;3.83;2.92;;;4.20;75.40;;;;;;5054325;28;20091;-28
2022/04/04 01:39:17;;;;;;;6.03;3.50;;;4.20;75.30;;;;;;5054554;28;20389;-28
2022/04/04 01:41:43;;;;;;;4.80;3.80;;;4.20;75.30;;;;;;5054231;28;20025;-28
2022/04/04 01:44:10;;;;;;;5.47;3.78;;;4.20;75.20;;;;;;5054129;28;20040;-27
2022/04/04 01:46:35;;;;;;;5.15;3.55;;;4.20;75.30;;;;;;5054041;28;20025;-29
2022/04/04 01:49:04;;;;;;;5.00;3.20;;;4.20;75.30;;;;;;5054072;28;20024;-34
2022/04/04 01:51:31;;;;;;;4.63;3.50;;;4.10;75.20;;;;;;5054013;28;20017;-29
2022/04/04 01:53:57;;;;;;;4.47;3.25;;;4.20;75.30;;;;;;5054105;28;20020;-29
2022/04/04 01:56:23;;;;;;;5.68;3.42;;;4.20;75.20;;;;;;5054301;28;20033;-31
2022/04/04 01:58:50;;;;;;;7.45;3.70;;;4.20;75.20;;;;;;5053683;28;20045;-29
2022/04/04 02:01:22;;;;;;;4.15;3.05;;;4.20;75.10;;;;;;5053661;28;20029;-29
2022/04/04 02:03:51;;;;;;;5.32;3.55;;;4.20;75.10;;;;;;5053673;28;20064;-29
2022/04/04 02:06:18;;;;;;;5.03;3.67;;;4.20;75.00;;;;;;5053860;28;20132;-28
2022/04/04 02:08:44;;;;;;;5.32;3.85;;;4.20;75.10;;;;;;5053534;28;20059;-30
2022/04/04 02:11:11;;;;;;;5.75;4.07;;;4.20;75.00;;;;;;5053633;28;20025;-29
2022/04/04 02:13:37;;;;;;;5.45;3.60;;;4.20;75.00;;;;;;5053462;28;20032;-29
2022/04/04 02:16:04;;;;;;;5.28;3.58;;;4.20;75.00;;;;;;5053500;28;20531;-34
2022/04/04 02:18:32;;;;;;;7.82;3.80;;;4.30;74.90;;;;;;5053580;28;20017;-31
2022/04/04 02:20:58;;;;;;;5.63;4.10;;;4.30;75.40;;;;;;5053452;28;20036;-29
2022/04/04 02:23:24;;;;;;;5.50;3.92;;;4.30;74.70;;;;;;5053520;28;20393;-28
2022/04/04 02:25:53;;;;;;;4.82;3.85;;;4.30;74.50;;;;;;5053273;28;20096;-28
2022/04/04 02:28:19;;;;;;;5.20;4.20;;;4.30;74.40;;;;;;5053374;28;20086;-29
2022/04/04 02:30:45;;;;;;;5.45;3.97;;;4.40;74.40;;;;;;5053513;28;20021;-28
2022/04/04 02:33:15;;;;;;;4.60;3.40;;;4.30;74.30;;;;;;5053084;28;20029;-28
2022/04/04 02:35:41;;;;;;;4.78;3.85;;;4.40;74.40;;;;;;5053090;28;20049;-29
2022/04/04 02:38:07;;;;;;;6.90;4.05;;;4.40;74.20;;;;;;5053037;28;20061;-29
2022/04/04 02:40:33;;;;;;;6.45;3.80;;;4.40;74.10;;;;;;5053153;28;20108;-42
2022/04/04 02:42:59;;;;;;;4.47;3.95;;;4.40;74.10;;;;;;5052937;28;20162;-41
2022/04/04 02:45:25;;;;;;;4.30;3.90;;;4.40;74.00;;;;;;5052968;28;20027;-42
2022/04/04 02:47:50;;;;;;;10.95;4.68;;;4.40;74.00;;;;;;5051561;28;20021;-42
2022/04/04 02:50:16;;;;;;;4.47;3.92;;;4.40;73.90;;;;;;5052857;28;20124;-41
2022/04/04 02:52:43;;;;;;;8.77;4.03;;;4.40;73.90;;;;;;5052826;28;20418;-43
2022/04/04 02:57:55;;;;;;;6.80;4.72;;;4.40;73.70;;;;;;5052969;28;20083;-43
2022/04/04 03:00:23;;;;;;;6.80;4.43;;;4.50;73.50;;;;;;5052626;28;20041;-43
2022/04/04 03:02:50;;;;;;;4.82;4.03;;;4.50;73.50;;;;;;5052923;28;20031;-42
2022/04/04 03:05:15;;;;;;;7.60;4.97;;;4.40;73.40;;;;;;5052617;28;20029;-43
2022/04/04 03:07:42;;;;;;;9.13;5.35;;;4.40;73.40;;;;;;5052590;28;20098;-40
2022/04/04 03:10:09;;;;;;;7.95;5.10;;;4.40;73.30;;;;;;5051279;28;20539;-43
2022/04/04 03:12:43;;;;;;;6.57;4.32;;;4.40;73.40;;;;;;5052147;28;20108;-43
2022/04/04 03:15:17;;;;;;;7.78;5.47;;;4.40;73.30;;;;;;5052532;28;20033;-41
2022/04/04 03:17:44;;;;;;;7.15;5.05;;;4.50;73.30;;;;;;5052397;28;20029;-42
2022/04/04 03:20:12;;;;;;;9.20;5.30;;;4.50;73.30;;;;;;5052438;28;20064;-42
2022/04/04 03:22:43;;;;;;;9.60;6.03;;;4.50;73.20;;;;;;5052191;28;20049;-43
2022/04/04 03:25:10;;;;;;;7.70;4.95;;;4.50;73.10;;;;;;5052460;28;20481;-43
2022/04/04 03:27:37;;;;;;;7.40;5.18;;;4.50;73.10;;;;;;5052613;28;20588;-43
2022/04/04 03:30:05;;;;;;;6.50;4.72;;;4.50;73.00;;;;;;5052656;28;20070;-43
2022/04/04 03:32:31;;;;;;;9.63;5.28;;;4.50;73.00;;;;;;5052233;28;20033;-42
2022/04/04 03:34:57;;;;;;;8.25;5.25;;;4.50;73.00;;;;;;5052313;28;20036;-42
2022/04/04 03:37:24;;;;;;;7.53;4.80;;;4.50;73.00;;;;;;5050965;28;20021;-42
2022/04/04 03:39:50;;;;;;;6.07;4.97;;;4.50;73.00;;;;;;5052359;28;20029;-41
2022/04/04 03:42:16;;;;;;;8.38;5.20;;;4.50;73.00;;;;;;5052186;28;20044;-42
2022/04/04 03:44:42;;;;;;;6.55;4.43;;;4.50;73.00;;;;;;5052294;28;20025;-43
2022/04/04 03:47:07;;;;;;;7.28;5.53;;;4.50;73.00;;;;;;5052391;28;20033;-43
2022/04/04 03:49:33;;;;;;;7.13;4.95;;;4.50;73.00;;;;;;5052210;28;20021;-43
2022/04/04 03:51:59;;;;;;;6.80;4.88;;;4.50;73.00;;;;;;5052294;28;20026;-42
2022/04/04 03:54:24;;;;;;;6.38;4.75;;;4.50;72.90;;;;;;5052266;28;20477;-43
2022/04/04 03:56:50;;;;;;;8.00;4.97;;;4.50;72.90;;;;;;5052139;28;20024;-42
2022/04/04 03:59:16;;;;;;;10.57;5.93;;;4.50;72.90;;;;;;5052151;28;20049;-42
2022/04/04 04:01:42;;;;;;;8.18;5.60;;;4.50;73.00;;;;;;5051941;28;20048;-39
2022/04/04 04:04:07;;;;;;;8.00;4.75;;;4.50;73.10;;;;;;5051563;28;20040;-43
2022/04/04 04:06:33;;;;;;;5.85;4.60;;;4.50;73.00;;;;;;5052002;28;20017;-43
2022/04/04 04:08:59;;;;;;;6.85;5.00;;;4.50;73.00;;;;;;5052020;28;20024;-42
2022/04/04 04:11:25;;;;;;;5.57;4.68;;;4.50;73.00;;;;;;5051915;28;20040;-41
2022/04/04 04:13:51;;;;;;;7.68;5.05;;;4.50;72.90;;;;;;5052200;28;20470;-43
2022/04/04 04:16:16;;;;;;;9.32;5.63;;;4.60;73.00;;;;;;5051970;28;20503;-42
2022/04/04 04:18:43;;;;;;;11.18;5.10;;;4.60;72.90;;;;;;5051756;28;20036;-43
2022/04/04 04:21:10;;;;;;;7.47;5.45;;;4.60;72.90;;;;;;5051896;28;20481;-43
2022/04/04 04:23:39;;;;;;;7.72;4.97;;;4.60;72.90;;;;;;5053462;28;20493;-41
2022/04/04 04:26:06;;;;;;;5.85;4.43;;;4.60;72.90;;;;;;5055529;28;20029;-42
2022/04/04 04:28:32;;;;;;;6.70;4.70;;;4.60;72.90;;;;;;5055471;28;20420;-42
2022/04/04 04:30:59;;;;;;;6.22;4.75;;;4.60;72.80;;;;;;5055731;28;20541;-42
2022/04/04 04:33:25;;;;;;;6.78;4.80;;;4.70;72.90;;;;;;5055464;28;20064;-42
2022/04/04 04:35:51;;;;;;;8.13;5.10;;;4.70;72.90;;;;;;5055199;28;20036;-43
2022/04/04 04:38:17;;;;;;;7.65;5.63;;;4.70;72.90;;;;;;5055308;28;20071;-43
2022/04/04 04:40:43;;;;;;;6.53;4.55;;;4.70;72.90;;;;;;5055228;28;20063;-42
2022/04/04 04:43:08;;;;;;;7.97;5.38;;;4.70;72.90;;;;;;5055147;28;20399;-43
2022/04/04 04:45:34;;;;;;;5.95;4.65;;;4.70;72.80;;;;;;5055247;28;20063;-43
2022/04/04 04:48:00;;;;;;;6.60;4.68;;;4.70;72.80;;;;;;5055018;28;20104;-43
2022/04/04 04:50:27;;;;;;;5.60;4.40;;;4.70;72.70;;;;;;5055167;28;20029;-43
2022/04/04 04:52:54;;;;;;;5.38;4.38;;;4.80;72.80;;;;;;5055036;28;20102;-41
2022/04/04 04:55:20;;;;;;;7.18;4.30;;;4.80;72.80;;;;;;5055103;28;20025;-43
2022/04/04 04:57:46;;;;;;;7.22;4.72;;;4.90;72.70;;;;;;5055202;28;20033;-34
2022/04/04 05:00:16;;;;;;;7.07;5.35;;;4.90;72.60;;;;;;5054799;28;20053;-34
2022/04/04 05:02:42;;;;;;;7.00;4.70;;;4.90;72.60;;;;;;5054842;28;20408;-36
2022/04/04 05:05:08;;;;;;;9.15;4.85;;;4.90;72.60;;;;;;5054921;28;20053;-34
2022/04/04 05:07:34;;;;;;;5.97;4.63;;;5.00;72.60;;;;;;5055046;28;20041;-34
2022/04/04 05:10:00;;;;;;;7.97;4.95;;;5.00;72.60;;;;;;5054837;28;20021;-36
2022/04/04 05:12:25;;;;;;;6.63;4.97;;;5.00;72.60;;;;;;5054839;28;20572;-34
2022/04/04 05:14:51;;;;;;;6.22;4.70;;;5.00;72.60;;;;;;5054671;28;20417;-35
2022/04/04 05:17:16;;;;;;;7.22;4.75;;;5.10;72.60;;;;;;5054862;28;20021;-34
2022/04/04 05:19:43;;;;;;;7.13;4.50;;;5.10;72.60;;;;;;5054489;28;20020;-36
2022/04/04 05:22:08;;;;;;;6.60;4.40;;;5.10;72.50;;;;;;5054646;28;20116;-36
2022/04/04 05:24:35;;;;;;;6.53;4.60;;;5.20;72.60;;;;;;5054330;28;20108;-34
2022/04/04 05:27:00;;;;;;;7.00;5.00;;;5.20;72.40;;;;;;5054502;28;20013;-39
2022/04/04 05:29:26;;;;;;;8.38;5.07;;;5.20;72.40;;;;;;5054405;28;20017;-35
2022/04/04 05:31:55;;;;;;;6.82;4.63;;;5.30;72.40;;;;;;5054328;28;20048;-35
2022/04/04 05:34:22;;;;;;;7.75;4.60;;;5.30;72.30;;;;;;5054128;28;20025;-36
2022/04/04 05:36:49;;;;;;;7.45;4.70;;;5.30;72.30;;;;;;5054399;28;20068;-36
2022/04/04 05:39:14;;;;;;;9.80;5.03;;;5.40;72.30;;;;;;5054309;28;20543;-35
2022/04/04 05:41:40;;;;;;;8.40;5.18;;;5.40;72.20;;;;;;5054224;28;20029;-34
2022/04/04 05:44:06;;;;;;;8.75;5.50;;;5.40;72.30;;;;;;5054110;28;20033;-34
2022/04/04 05:46:33;;;;;;;8.05;5.13;;;5.40;72.20;;;;;;5054142;28;20021;-34
2022/04/04 05:49:00;;;;;;;7.00;4.95;;;5.50;72.20;;;;;;5054035;28;20017;-34
2022/04/04 05:51:28;;;;;;;8.10;4.47;;;5.50;72.10;;;;;;5054087;28;20017;-34
2022/04/04 05:53:54;;;;;;;6.93;5.07;;;5.50;72.00;;;;;;5053971;28;20024;-34
2022/04/04 05:56:21;;;;;;;9.27;5.45;;;5.60;72.00;;;;;;5053975;28;20033;-35
2022/04/04 05:58:50;;;;;;;8.85;5.85;;;5.60;71.90;;;;;;5053802;28;20094;-36
2022/04/04 06:01:16;;;;;;;7.88;4.82;;;5.60;71.80;;;;;;5053907;28;20072;-36
2022/04/04 06:03:41;;;;;;;8.07;4.95;;;5.70;71.70;;;;;;5053751;28;20064;-41
2022/04/04 06:06:08;;;;;;;6.97;5.15;;;5.70;71.70;;;;;;5053984;28;20031;-39
2022/04/04 06:08:33;;;;;;;10.88;5.18;;;5.70;71.60;;;;;;5053942;28;20071;-38
2022/04/04 06:10:59;;;;;;;8.30;4.90;;;5.70;71.50;;;;;;5053752;28;20414;-38
2022/04/04 06:13:25;;;;;;;7.90;5.20;;;5.80;71.50;;;;;;5053771;28;20024;-38
2022/04/04 06:15:50;;;;;;;6.25;5.03;;;5.80;71.50;;;;;;5053544;28;20436;-38
2022/04/04 06:18:16;;;;;;;8.05;5.60;;;5.80;71.40;;;;;;5053667;28;20154;-38
2022/04/04 06:20:42;;;;;;;7.28;5.32;;;5.80;71.30;;;;;;5053959;28;20067;-38
2022/04/04 06:23:08;;;;;;;8.50;5.57;;;5.90;71.30;;;;;;5053595;28;20519;-38
2022/04/04 06:25:34;;;;;;;7.55;5.35;;;5.90;71.10;;;;;;5053587;28;20017;-37
2022/04/04 06:27:59;;;;;;;8.43;5.60;;;5.90;71.00;;;;;;5053311;28;20100;-38
2022/04/04 06:30:26;;;;;;;12.10;5.38;;;6.10;71.00;;;;;;5051904;28;20025;-38
2022/04/04 06:32:51;;;;;;;8.48;5.20;;;6.10;70.80;;;;;;5053159;28;20017;-39
2022/04/04 06:35:17;;;;;;;10.43;5.15;;;6.10;70.60;;;;;;5053209;28;20365;-39
2022/04/04 06:37:45;;;;;;;9.35;6.07;;;6.20;70.50;;;;;;5052997;28;20025;-38
2022/04/04 06:40:13;;;;;;;7.78;5.70;;;6.30;70.30;;;;;;5053046;28;20059;-40
2022/04/04 06:42:42;;;;;;;8.32;5.05;;;6.30;70.20;;;;;;5052029;28;20469;-39
2022/04/04 06:45:09;;;;;;;6.45;5.13;;;6.30;70.70;;;;;;5053045;28;20388;-40
2022/04/04 06:47:34;;;;;;;7.90;5.45;;;6.40;69.70;;;;;;5052148;28;20068;-39
2022/04/04 06:50:00;;;;;;;7.68;4.68;;;6.40;69.60;;;;;;5053030;28;20434;-40
2022/04/04 06:52:27;;;;;;;7.35;5.05;;;6.40;69.50;;;;;;5052899;28;20070;-38
2022/04/04 06:54:54;;;;;;;6.47;4.93;;;6.50;69.40;;;;;;5053155;28;20476;-39
2022/04/04 06:57:20;;;;;;;7.35;5.22;;;6.50;69.00;;;;;;5052756;28;20021;-39
2022/04/04 06:59:47;;;;;;;9.25;5.30;;;6.60;69.00;;;;;;5052821;28;20049;-40
2022/04/04 07:02:13;;;;;;;9.98;4.97;;;6.60;68.90;;;;;;5051540;28;20036;-41
2022/04/04 07:04:40;;;;;;;13.65;5.88;;;6.60;68.90;;;;;;5052654;28;20033;-40
2022/04/04 07:07:06;;;;;;;5.05;4.55;;;6.70;68.40;;;;;;5053055;28;20469;-40
2022/04/04 07:09:32;;;;;;;6.88;4.13;;;6.70;68.50;;;;;;5052809;28;20032;-37
2022/04/04 07:11:57;;;;;;;7.80;4.72;;;6.70;68.60;;;;;;5052672;28;20036;-40
2022/04/04 07:14:24;;;;;;;6.82;5.20;;;6.80;68.20;;;;;;5052643;28;20048;-39
2022/04/04 07:16:52;;;;;;;8.98;5.35;;;6.80;67.80;;;;;;5052740;28;20392;-38
2022/04/04 07:19:22;;;;;;;6.03;4.47;;;6.90;67.40;;;;;;5052908;28;20067;-40
2022/04/04 07:21:47;;;;;;;8.18;4.90;;;6.90;67.30;;;;;;5053009;28;20039;-41
2022/04/04 07:24:13;;;;;;;10.48;5.25;;;7.00;67.30;;;;;;5052526;28;20021;-40
2022/04/04 07:26:38;;;;;;;7.10;4.88;;;7.00;67.20;;;;;;5052437;28;20044;-40
2022/04/04 07:29:04;;;;;;;7.97;4.55;;;7.10;67.20;;;;;;5052507;28;20060;-42
2022/04/04 07:31:29;;;;;;;10.38;5.53;;;7.10;67.30;;;;;;5052552;28;20044;-41
2022/04/04 07:33:55;;;;;;;6.95;4.65;;;7.20;67.10;;;;;;5052387;28;20029;-40
2022/04/04 07:36:21;;;;;;;9.18;4.63;;;7.20;67.10;;;;;;5052534;28;20439;-41
2022/04/04 07:38:47;;;;;;;6.88;4.30;;;7.20;67.30;;;;;;5052661;28;20025;-41
2022/04/04 07:41:12;;;;;;;9.55;4.10;;;7.30;67.40;;;;;;5052432;28;20397;-41
2022/04/04 07:43:38;;;;;;;7.75;4.78;;;7.30;67.60;;;;;;5052243;28;20037;-41
2022/04/04 07:46:04;;;;;;;9.07;4.68;;;7.30;67.80;;;;;;5052428;28;20090;-41
2022/04/04 07:48:32;;;;;;;8.80;5.35;;;7.30;68.00;;;;;;5052292;28;20104;-41
2022/04/04 07:50:57;;;;;;;10.23;5.55;;;7.30;68.50;;;;;;5052637;28;20021;-41
2022/04/04 07:53:23;;;;;;;7.97;5.10;;;7.30;69.00;;;;;;5052409;28;20020;-41
2022/04/04 07:55:49;;;;;;;7.75;5.57;;;7.20;69.40;;;;;;5052156;28;20393;-41
2022/04/04 07:58:17;;;;;;;6.38;5.20;;;7.20;70.00;;;;;;5053484;28;20029;-41
2022/04/04 08:00:43;;;;;;;7.70;5.43;;;7.10;70.10;;;;;;5055910;28;20527;-40
2022/04/04 08:03:08;;;;;;;8.63;5.88;;;7.10;70.90;;;;;;5056315;28;20516;-40
2022/04/04 08:05:34;;;;;;;8.60;6.00;;;7.10;71.30;;;;;;5056048;28;20105;-39
2022/04/04 08:08:00;;;;;;;10.20;6.60;;;7.10;72.10;;;;;;5056142;28;20048;-39
2022/04/04 08:10:25;;;;;;;10.50;6.68;;;7.00;72.60;;;;;;5055992;28;20083;-39
2022/04/04 08:12:52;;;;;;;9.13;6.68;;;7.00;72.90;;;;;;5056033;28;20029;-41
2022/04/04 08:15:18;;;;;;;8.35;6.53;;;7.00;73.60;;;;;;5056030;28;20075;-41
2022/04/04 08:17:45;;;;;;;13.70;7.97;;;6.90;73.70;;;;;;5055897;28;20473;-40
2022/04/04 08:20:11;;;;;;;10.25;6.95;;;6.90;73.90;;;;;;5055883;28;20029;-39
2022/04/04 08:22:39;;;;;;;10.02;6.47;;;6.90;74.20;;;;;;5055629;28;20029;-39
2022/04/04 08:25:05;;;;;;;8.75;6.82;;;6.90;74.20;;;;;;5055623;28;20104;-39
2022/04/04 08:27:31;;;;;;;11.23;6.72;;;6.90;74.30;;;;;;5055645;28;20021;-41
2022/04/04 08:29:56;;;;;;;9.50;7.15;;;6.80;74.30;;;;;;5055549;28;20025;-40
2022/04/04 08:32:22;;;;;;;11.07;6.85;;;6.90;74.50;;;;;;5055513;28;20381;-39
2022/04/04 08:34:48;;;;;;;9.98;6.60;;;6.90;74.40;;;;;;5055478;28;20061;-41
2022/04/04 08:37:13;;;;;;;11.13;6.70;;;6.90;74.40;;;;;;5055642;28;20100;-39
2022/04/04 08:39:39;;;;;;;6.88;5.88;;;6.90;74.20;;;;;;5055317;28;20144;-39
2022/04/04 08:42:05;;;;;;;10.15;6.72;;;6.90;74.20;;;;;;5055340;28;20139;-40
2022/04/04 08:44:32;;;;;;;11.45;7.13;;;7.00;74.20;;;;;;5055220;28;20037;-39
2022/04/04 08:46:59;;;;;;;14.15;7.45;;;7.00;74.00;;;;;;5055276;28;20019;-41
2022/04/04 08:49:25;;;;;;;11.80;6.95;;;7.00;74.00;;;;;;5055140;28;20021;-39
2022/04/04 08:51:51;;;;;;;9.50;6.40;;;7.00;74.10;;;;;;5055390;28;20445;-41
2022/04/04 08:54:17;;;;;;;12.82;7.40;;;7.00;74.00;;;;;;5055200;28;20021;-39
2022/04/04 08:56:43;;;;;;;11.20;7.18;;;7.10;73.90;;;;;;5055108;28;20032;-39
2022/04/04 08:59:09;;;;;;;10.90;7.97;;;7.10;73.80;;;;;;5053811;28;20041;-40
2022/04/04 09:01:35;;;;;;;12.13;7.72;;;7.10;73.70;;;;;;5054903;28;20021;-38
2022/04/04 09:04:01;;;;;;;12.93;7.35;;;7.10;73.80;;;;;;5055141;28;20475;-40
2022/04/04 09:06:30;;;;;;;12.98;8.30;;;7.10;73.90;;;;;;5054857;28;20028;-40
2022/04/04 09:08:56;;;;;;;9.75;7.00;;;7.10;73.90;;;;;;5053465;28;20067;-39
2022/04/04 09:11:22;;;;;;;10.63;7.95;;;7.10;73.90;;;;;;5053973;28;20021;-41
2022/04/04 09:14:07;;;;;;;12.77;8.68;;;7.10;74.70;;;;;;5054711;28;20106;-39
2022/04/04 09:16:33;;;;;;;12.35;7.57;;;7.10;75.70;;;;;;5054659;28;20021;-29
2022/04/04 09:18:59;;;;;;;16.05;8.63;;;6.90;76.00;;;;;;5054661;28;20108;-29
2022/04/04 09:21:25;;;;;;;9.38;7.50;;;6.90;76.60;;;;;;5054768;28;20106;-28
2022/04/04 09:23:54;;;;;;;11.38;8.77;;;6.80;76.70;;;;;;5054438;28;20043;-29
2022/04/04 09:26:29;;;;;;;15.88;8.60;;;6.80;77.40;;;;;;5054576;28;20154;-29
2022/04/04 09:29:06;;;;;;;11.82;8.48;;;6.80;77.70;;;;;;5054665;28;20472;-28
2022/04/04 09:31:31;;;;;;;14.50;9.10;;;6.70;78.00;;;;;;5054311;28;20025;-28
2022/04/04 09:34:02;;;;;;;12.55;8.15;;;6.70;78.80;;;;;;5054233;28;20025;-29
2022/04/04 09:36:29;;;;;;;14.40;10.07;;;6.70;78.70;;;;;;5054297;28;20097;-28
2022/04/04 09:39:08;;;;;;;12.15;8.23;;;6.70;79.60;;;;;;5052975;28;20017;-28
2022/04/04 09:41:34;;;;;;;16.17;9.93;;;6.70;80.00;;;;;;5052890;28;20131;-28
2022/04/04 09:44:02;;;;;;;16.35;9.32;;;6.60;80.60;;;;;;5054124;28;20102;-29
2022/04/04 09:46:38;;;;;;;11.02;9.02;;;6.60;81.10;;;;;;5054418;28;20476;-29
2022/04/04 09:49:17;;;;;;;14.40;9.48;;;6.50;81.20;;;;;;5054058;28;20469;-29
2022/04/04 09:51:48;;;;;;;11.20;8.50;;;6.50;82.10;;;;;;5052657;28;20021;-28
2022/04/04 09:54:23;;;;;;;10.13;8.25;;;6.40;82.40;;;;;;5053979;28;20040;-29
2022/04/04 09:56:53;;;;;;;13.98;9.57;;;6.40;82.50;;;;;;5053800;28;20017;-31
2022/04/04 09:59:19;;;;;;;12.77;9.38;;;6.40;82.40;;;;;;5052351;28;20052;-29
2022/04/04 10:01:46;;;;;;;11.88;8.48;;;6.40;83.00;;;;;;5054019;28;20381;-31
2022/04/04 10:04:12;;;;;;;11.05;9.52;;;6.40;83.30;;;;;;5053712;28;20103;-28
2022/04/04 10:06:40;;;;;;;14.95;8.77;;;6.40;83.60;;;;;;5053745;28;20090;-28
2022/04/04 10:09:06;;;;;;;12.55;8.43;;;6.40;83.80;;;;;;5053961;28;20021;-27
2022/04/04 10:11:35;;;;;;;12.20;8.95;;;6.40;83.80;;;;;;5053668;28;20067;-28
2022/04/04 10:14:02;;;;;;;14.73;9.55;;;6.40;83.90;;;;;;5053658;28;20021;-29
2022/04/04 10:16:30;;;;;;;13.13;9.35;;;6.50;84.00;;;;;;5053501;28;20392;-27
2022/04/04 10:18:57;;;;;;;14.98;9.45;;;6.50;84.40;;;;;;5052232;28;20109;-29
2022/04/04 10:21:25;;;;;;;15.57;10.10;;;6.40;84.40;;;;;;5053637;28;20025;-31
2022/04/04 10:23:55;;;;;;;11.40;8.40;;;6.40;84.60;;;;;;5052026;28;20456;-29
2022/04/04 10:26:25;;;;;;;11.88;8.50;;;6.50;84.80;;;;;;5053351;28;20021;-29
2022/04/04 10:28:50;;;;;;;10.00;8.80;;;6.50;84.70;;;;;;5053266;28;20025;-28
2022/04/04 10:31:18;;;;;;;9.90;7.93;;;6.40;85.10;;;;;;5053283;28;20477;-29
2022/04/04 10:33:46;;;;;;;12.98;8.25;;;6.40;85.00;;;;;;5053177;28;20021;-28
2022/04/04 10:36:20;;;;;;;13.45;8.48;;;6.40;85.00;;;;;;5053546;28;20025;-28
2022/04/04 10:38:47;;;;;;;13.95;8.20;;;6.40;85.40;;;;;;5053197;28;20029;-29
2022/04/04 10:41:27;;;;;;;10.95;8.43;;;6.40;85.40;;;;;;5053044;28;20025;-28
2022/04/04 10:43:54;;;;;;;12.40;7.88;;;6.40;85.50;;;;;;5052952;28;20021;-29
2022/04/04 10:46:25;;;;;;;10.80;8.23;;;6.40;86.00;;;;;;5053173;28;20029;-28
2022/04/04 10:48:51;;;;;;;11.82;8.45;;;6.40;86.00;;;;;;5052914;28;20009;-28
2022/04/04 10:51:28;;;;;;;11.98;7.80;;;6.40;86.40;;;;;;5052802;28;20055;-28
2022/04/04 10:54:01;;;;;;;13.07;8.00;;;6.40;86.30;;;;;;5052926;28;20052;-31
2022/04/04 10:56:31;;;;;;;8.90;7.38;;;6.40;86.30;;;;;;5052908;28;20114;-28
2022/04/04 10:59:15;;;;;;;8.48;7.50;;;6.40;86.60;;;;;;5052735;28;20091;-29
2022/04/04 11:01:47;;;;;;;9.65;7.05;;;6.40;86.50;;;;;;5053165;28;20461;-33
2022/04/04 11:04:36;;;;;;;15.80;10.82;;;6.40;86.30;;;;;;5053083;28;20029;-30
2022/04/04 11:09:55;;;;;;;9.38;6.60;;;6.50;86.90;;;;;;5053001;28;20040;-30
2022/04/04 11:12:23;;;;;;;8.07;6.65;;;6.50;86.80;;;;;;5051439;28;20455;-29
2022/04/04 11:14:57;;;;;;;9.10;6.63;;;6.50;87.00;;;;;;5053048;28;20166;-30
2022/04/04 11:17:40;;;;;;;7.68;6.45;;;6.50;87.10;;;;;;5053040;28;20021;-28
2022/04/04 11:20:33;;;;;;;9.80;6.80;;;6.50;87.10;;;;;;5051381;28;20036;-31
2022/04/04 11:23:08;;;;;;;8.25;6.20;;;6.50;87.10;;;;;;5052871;28;20021;-29
2022/04/04 11:25:35;;;;;;;8.15;6.30;;;6.50;86.90;;;;;;5052672;28;20031;-29
2022/04/04 11:28:04;;;;;;;6.30;5.55;;;6.60;86.90;;;;;;5052635;28;20017;-31
2022/04/04 11:30:30;;;;;;;8.77;5.30;;;6.60;86.90;;;;;;5052666;28;20021;-28
2022/04/04 11:33:07;;;;;;;7.97;6.50;;;6.60;86.80;;;;;;5053090;28;20167;-30
2022/04/04 11:35:34;;;;;;;7.65;5.55;;;6.60;86.70;;;;;;5056789;28;20390;-31
2022/04/04 11:38:12;;;;;;;7.65;6.63;;;6.70;87.00;;;;;;5056665;28;20017;-30
2022/04/04 11:40:39;;;;;;;6.22;5.32;;;6.70;87.30;;;;;;5056808;28;20040;-28
2022/04/04 11:43:07;;;;;;;7.07;5.22;;;6.70;87.00;;;;;;5056498;28;20036;-31
2022/04/04 11:45:39;;;;;;;9.68;5.32;;;6.70;87.00;;;;;;5056565;28;20028;-29
2022/04/04 11:48:23;;;;;;;8.60;5.40;;;6.80;87.00;;;;;;5055231;28;20017;-28
2022/04/04 11:50:51;;;;;;;7.53;5.22;;;6.80;87.20;;;;;;5056711;28;20085;-31
2022/04/04 11:53:25;;;;;;;11.90;5.53;;;6.90;87.40;;;;;;5056396;28;20025;-28
2022/04/04 11:55:52;;;;;;;7.13;5.28;;;6.90;87.30;;;;;;5056257;28;20104;-29
2022/04/04 11:58:20;;;;;;;7.40;5.85;;;6.90;87.60;;;;;;5056167;28;20025;-31
2022/04/04 12:00:55;;;;;;;6.32;5.05;;;6.90;87.60;;;;;;5056274;28;20036;-30
2022/04/04 12:03:23;;;;;;;6.40;5.30;;;6.90;87.80;;;;;;5056258;28;20025;-30
2022/04/04 12:05:49;;;;;;;7.85;5.80;;;6.90;87.70;;;;;;5056098;28;20029;-29
2022/04/04 12:08:17;;;;;;;6.35;5.28;;;6.90;87.90;;;;;;5056121;28;20036;-30
2022/04/04 12:10:46;;;;;;;10.45;7.10;;;7.00;87.90;;;;;;5056338;28;20017;-29
2022/04/04 12:13:13;;;;;;;9.82;6.72;;;7.00;88.00;;;;;;5056099;28;20028;-29
2022/04/04 12:15:44;;;;;;;7.88;7.07;;;7.00;87.80;;;;;;5056253;28;20092;-32
2022/04/04 12:18:20;;;;;;;8.55;6.60;;;7.00;87.90;;;;;;5056196;28;20020;-29
2022/04/04 12:20:47;;;;;;;9.95;7.97;;;7.00;88.00;;;;;;5055803;28;20079;-30
2022/04/04 12:26:03;;;;;;;8.40;6.65;;;7.00;88.20;;;;;;5056076;28;20051;-31
2022/04/04 12:28:32;;;;;;;6.40;5.72;;;7.00;88.20;;;;;;5055947;28;20017;-30
2022/04/04 12:31:12;;;;;;;7.18;5.78;;;7.10;88.50;;;;;;5056008;28;20469;-32
2022/04/04 12:33:38;;;;;;;8.30;6.85;;;7.10;88.70;;;;;;5055633;28;20033;-30
2022/04/04 12:36:04;;;;;;;7.25;5.75;;;7.10;89.20;;;;;;5055750;28;20098;-30
2022/04/04 12:38:38;;;;;;;6.20;5.60;;;7.10;89.40;;;;;;5056086;28;20112;-29
2022/04/04 12:41:14;;;;;;;6.03;5.22;;;7.10;89.60;;;;;;5055958;28;20500;-31
2022/04/04 12:43:47;;;;;;;6.18;5.55;;;7.10;89.50;;;;;;5055553;28;20128;-30
2022/04/04 12:46:27;;;;;;;5.60;5.10;;;7.10;89.80;;;;;;5054580;28;20021;-30
2022/04/04 12:48:53;;;;;;;7.13;6.00;;;7.10;89.70;;;;;;5055701;28;20021;-29
2022/04/04 12:51:30;;;;;;;7.47;5.90;;;7.10;89.80;;;;;;5055412;28;20017;-29
2022/04/04 12:53:58;;;;;;;7.00;6.13;;;7.10;89.90;;;;;;5055635;28;20033;-29
2022/04/04 12:56:26;;;;;;;6.93;6.22;;;7.10;90.00;;;;;;5055428;28;20044;-31
2022/04/04 12:59:10;;;;;;;6.07;5.47;;;7.10;90.00;;;;;;5055262;28;20127;-29
2022/04/04 13:01:36;;;;;;;7.07;5.57;;;7.20;89.90;;;;;;5055389;28;20330;-30
2022/04/04 13:04:19;;;;;;;7.20;6.45;;;7.20;89.80;;;;;;5055007;28;20021;-29
2022/04/04 13:06:45;;;;;;;7.05;6.35;;;7.20;89.90;;;;;;5055234;28;20017;-29